createdAt,value
2022-12-11T00:04:22.901Z,2.86
2022-12-11T00:09:25.750Z,2.81
2022-12-11T00:14:27.360Z,2.83
2022-12-11T00:19:29.153Z,2.80
2022-12-11T00:24:30.848Z,2.80
2022-12-11T00:29:32.416Z,2.74
2022-12-11T00:34:34.114Z,2.72
2022-12-11T00:39:39.763Z,2.72
2022-12-11T00:44:41.589Z,2.72
2022-12-11T00:49:49.432Z,2.68
2022-12-11T00:54:51.539Z,2.68
2022-12-11T00:59:53.432Z,2.70
2022-12-11T01:04:55.361Z,2.63
2022-12-11T01:10:15.586Z,2.64
2022-12-11T01:15:17.878Z,2.63
2022-12-11T01:20:22.152Z,2.58
2022-12-11T01:25:24.719Z,2.65
2022-12-11T01:30:26.797Z,2.50
2022-12-11T01:35:28.960Z,2.41
2022-12-11T01:40:30.859Z,2.42
2022-12-11T01:45:34.972Z,2.32
2022-12-11T01:50:45.797Z,2.28
2022-12-11T01:55:51.316Z,2.29
2022-12-11T02:00:53.848Z,2.22
2022-12-11T02:05:59.821Z,2.30
2022-12-11T02:11:17.940Z,2.32
2022-12-11T02:16:23.171Z,2.32
2022-12-11T02:21:33.348Z,2.34
2022-12-11T02:26:40.655Z,2.32
2022-12-11T02:31:50.524Z,2.38
2022-12-11T02:36:57.034Z,2.33
2022-12-11T02:41:59.958Z,2.28
2022-12-11T02:47:04.144Z,2.33
2022-12-11T02:52:07.280Z,2.25
2022-12-11T02:57:15.140Z,2.17
2022-12-11T03:02:17.796Z,2.24
2022-12-11T03:07:26.513Z,2.17
2022-12-11T03:12:31.384Z,2.15
2022-12-11T03:17:41.131Z,2.13
2022-12-11T03:23:12.597Z,2.17
2022-12-11T03:28:25.564Z,2.13
2022-12-11T03:33:35.764Z,2.16
2022-12-11T03:39:01.375Z,2.07
2022-12-11T03:44:03.523Z,2.00
2022-12-11T03:49:11.950Z,2.01
2022-12-11T03:54:14.397Z,2.12
2022-12-11T03:59:16.375Z,2.09
2022-12-11T04:04:18.277Z,2.12
2022-12-11T04:09:19.885Z,2.04
2022-12-11T04:14:40.056Z,2.02
2022-12-11T04:20:00.413Z,2.05
2022-12-11T04:25:05.378Z,2.01
2022-12-11T04:30:10.978Z,1.94
2022-12-11T04:35:13.644Z,1.88
2022-12-11T04:40:18.863Z,1.86
2022-12-11T04:45:20.701Z,1.83
2022-12-11T04:51:46.915Z,1.70
2022-12-11T04:56:48.501Z,1.53
2022-12-11T05:01:50.160Z,1.42
2022-12-11T05:06:52.022Z,1.36
2022-12-11T05:11:54.655Z,1.26
2022-12-11T05:16:56.278Z,1.24
2022-12-11T05:21:57.888Z,1.27
2022-12-11T05:26:59.544Z,1.16
2022-12-11T05:32:01.417Z,1.17
2022-12-11T05:37:03.286Z,1.22
2022-12-11T05:42:04.959Z,1.23
2022-12-11T05:47:06.546Z,1.18
2022-12-11T05:52:08.349Z,1.22
2022-12-11T05:57:09.941Z,1.11
2022-12-11T06:02:11.605Z,0.98
2022-12-11T06:07:13.651Z,1.07
2022-12-11T06:12:15.281Z,0.86
2022-12-11T06:17:17.059Z,0.87
2022-12-11T06:22:18.811Z,0.99
2022-12-11T06:27:20.765Z,1.02
2022-12-11T06:32:22.395Z,1.01
2022-12-11T06:37:23.967Z,0.94
2022-12-11T06:42:25.887Z,0.88
2022-12-11T06:47:29.691Z,0.94
2022-12-11T06:52:31.352Z,0.94
2022-12-11T06:57:33.500Z,1.01
2022-12-11T07:02:35.259Z,1.04
2022-12-11T07:07:37.423Z,1.06
2022-12-11T07:12:39.639Z,1.05
2022-12-11T07:17:41.274Z,1.07
2022-12-11T07:22:46.371Z,1.18
2022-12-11T07:27:48.531Z,1.20
2022-12-11T07:32:50.193Z,1.28
2022-12-11T07:37:51.831Z,1.33
2022-12-11T07:42:53.883Z,1.34
2022-12-11T07:47:55.484Z,1.39
2022-12-11T07:52:57.058Z,1.38
2022-12-11T07:57:58.634Z,1.43
2022-12-11T08:03:00.320Z,1.40
2022-12-11T08:08:02.236Z,1.43
2022-12-11T08:13:03.894Z,1.40
2022-12-11T08:18:05.731Z,1.53
2022-12-11T08:23:07.387Z,1.52
2022-12-11T08:28:09.016Z,1.46
2022-12-11T08:33:10.629Z,1.49
2022-12-11T08:38:12.351Z,1.49
2022-12-11T08:43:14.023Z,1.55
2022-12-11T08:48:15.633Z,1.64
2022-12-11T08:53:17.240Z,1.70
2022-12-11T08:58:18.834Z,1.78
2022-12-11T09:03:20.736Z,1.83
2022-12-11T09:08:22.376Z,1.90
2022-12-11T09:13:24.035Z,1.88
2022-12-11T09:18:25.735Z,1.89
2022-12-11T09:23:27.486Z,1.96
2022-12-11T09:28:29.281Z,1.86
2022-12-11T09:33:31.180Z,2.18
2022-12-11T09:38:33.496Z,2.12
2022-12-11T09:43:42.185Z,2.26
2022-12-11T09:48:47.608Z,2.18
2022-12-11T09:53:50.380Z,2.32
2022-12-11T09:59:01.578Z,2.20
2022-12-11T10:04:10.617Z,2.40
2022-12-11T10:09:58.608Z,2.47
2022-12-11T10:15:18.844Z,2.31
2022-12-11T10:20:39.067Z,2.47
2022-12-11T10:26:02.206Z,2.47
2022-12-11T10:31:27.958Z,2.72
2022-12-11T10:36:35.552Z,2.69
2022-12-11T10:41:39.711Z,2.62
2022-12-11T10:46:41.588Z,2.58
2022-12-11T10:51:44.025Z,2.64
2022-12-11T10:56:48.453Z,2.85
2022-12-11T11:01:50.766Z,2.92
2022-12-11T11:07:12.867Z,3.00
2022-12-11T11:12:27.360Z,3.22
2022-12-11T11:17:34.882Z,3.00
2022-12-11T11:22:44.331Z,3.01
2022-12-11T11:27:48.843Z,2.94
2022-12-11T11:33:21.190Z,2.88
2022-12-11T11:38:26.807Z,2.75
2022-12-11T11:43:47.974Z,2.73
2022-12-11T11:49:13.878Z,2.74
2022-12-11T11:54:21.170Z,2.64
2022-12-11T11:59:39.902Z,2.79
2022-12-11T12:04:42.831Z,2.85
2022-12-11T12:09:52.404Z,2.71
2022-12-11T12:15:12.548Z,2.56
2022-12-11T12:20:23.046Z,2.58
2022-12-11T12:25:45.415Z,2.53
2022-12-11T12:30:58.459Z,2.15
2022-12-11T12:36:24.424Z,2.25
2022-12-11T12:41:49.523Z,2.32
2022-12-11T12:46:57.122Z,2.47
2022-12-11T12:51:59.377Z,2.44
2022-12-11T12:57:04.153Z,2.52
2022-12-11T13:02:06.765Z,2.51
2022-12-11T13:07:13.312Z,2.58
2022-12-11T13:12:15.926Z,2.32
2022-12-11T13:17:20.467Z,2.27
2022-12-11T13:22:24.624Z,2.27
2022-12-11T13:27:46.574Z,2.12
2022-12-11T13:33:06.985Z,2.10
2022-12-11T13:38:18.701Z,2.04
2022-12-11T13:43:32.772Z,1.85
2022-12-11T13:48:34.300Z,1.63
2022-12-11T13:53:35.964Z,1.60
2022-12-11T13:58:39.775Z,1.62
2022-12-11T14:09:07.936Z,1.56
2022-12-11T14:14:25.242Z,1.42
2022-12-11T14:19:27.812Z,1.38
2022-12-11T14:24:31.149Z,1.32
2022-12-11T14:29:34.016Z,1.28
2022-12-11T14:34:44.312Z,1.22
2022-12-11T14:40:03.752Z,1.31
2022-12-11T14:45:17.557Z,1.17
2022-12-11T14:50:31.487Z,1.06
2022-12-11T14:55:37.933Z,1.12
2022-12-11T15:00:40.015Z,1.13
2022-12-11T15:05:56.741Z,1.20
2022-12-11T15:11:09.269Z,1.07
2022-12-11T15:16:14.365Z,1.06
2022-12-11T15:21:16.846Z,1.11
2022-12-11T15:26:20.544Z,1.02
2022-12-11T15:31:28.075Z,1.01
2022-12-11T15:36:36.964Z,0.93
2022-12-11T15:41:42.096Z,1.01
2022-12-11T15:46:43.701Z,0.97
2022-12-11T15:51:45.281Z,0.83
2022-12-11T15:56:47.303Z,0.87
2022-12-11T16:01:49.271Z,0.86
2022-12-11T16:06:51.631Z,0.84
2022-12-11T16:11:53.324Z,0.86
2022-12-11T16:16:55.099Z,0.82
2022-12-11T16:21:56.943Z,0.90
2022-12-11T16:26:59.292Z,0.71
2022-12-11T16:32:00.918Z,0.72
2022-12-11T16:37:03.268Z,0.66
2022-12-11T16:42:06.557Z,0.76
2022-12-11T16:47:08.178Z,0.73
2022-12-11T16:52:09.801Z,0.65
2022-12-11T16:57:12.034Z,0.63
2022-12-11T17:02:14.004Z,0.61
2022-12-11T17:07:16.072Z,0.54
2022-12-11T17:12:17.983Z,0.61
2022-12-11T17:17:19.569Z,0.59
2022-12-11T17:22:22.120Z,0.57
2022-12-11T17:27:24.161Z,0.55
2022-12-11T17:32:25.751Z,0.55
2022-12-11T17:37:27.451Z,0.56
2022-12-11T17:42:29.272Z,0.62
2022-12-11T17:47:32.068Z,0.58
2022-12-11T17:52:35.644Z,0.57
2022-12-11T17:57:39.180Z,0.58
2022-12-11T18:02:40.830Z,0.55
2022-12-11T18:07:42.440Z,0.59
2022-12-11T18:12:44.290Z,0.47
2022-12-11T18:17:46.299Z,0.27
2022-12-11T18:22:47.926Z,0.32
2022-12-11T18:27:49.590Z,0.20
2022-12-11T18:32:52.051Z,0.13
2022-12-11T18:37:53.717Z,0.16
2022-12-11T18:42:55.755Z,0.17
2022-12-11T18:47:57.701Z,-0.03
2022-12-11T18:53:00.556Z,-0.12
2022-12-11T18:58:02.382Z,0.06
2022-12-11T19:03:04.215Z,0.10
2022-12-11T19:08:05.885Z,0.03
2022-12-11T19:13:07.597Z,0.05
2022-12-11T19:18:09.938Z,0.08
2022-12-11T19:23:11.605Z,0.12
2022-12-11T19:28:14.025Z,0.05
2022-12-11T19:33:16.700Z,0.06
2022-12-11T19:38:18.362Z,0.10
2022-12-11T19:43:20.176Z,0.20
2022-12-11T19:48:21.775Z,0.21
2022-12-11T19:53:23.460Z,0.22
2022-12-11T19:58:25.220Z,0.25
2022-12-11T20:03:27.622Z,0.17
2022-12-11T20:08:44.103Z,0.28
2022-12-11T20:13:47.911Z,0.32
2022-12-11T20:18:49.640Z,0.33
2022-12-11T20:23:51.280Z,0.22
2022-12-11T20:28:53.450Z,0.29
2022-12-11T20:33:56.726Z,0.35
2022-12-11T20:38:58.423Z,0.28
2022-12-11T20:44:00.127Z,0.25
2022-12-11T20:49:01.956Z,0.18
2022-12-11T20:54:03.740Z,0.23
2022-12-11T20:59:05.854Z,0.15
2022-12-11T21:04:07.508Z,0.32
2022-12-11T21:09:14.810Z,0.29
2022-12-11T21:14:18.567Z,0.25
2022-12-11T21:19:23.320Z,0.28
2022-12-11T21:24:27.577Z,0.23
2022-12-11T21:29:29.465Z,0.14
2022-12-11T21:34:31.139Z,0.10
2022-12-11T21:39:38.959Z,0.18
2022-12-11T21:50:04.285Z,0.18
2022-12-11T21:55:06.774Z,0.14
2022-12-11T22:00:09.440Z,0.07
2022-12-11T22:05:14.301Z,0.05
2022-12-11T22:10:16.183Z,0.14
2022-12-11T22:15:18.135Z,0.17
2022-12-11T22:20:19.827Z,0.16
2022-12-11T22:25:21.687Z,0.23
2022-12-11T22:30:23.491Z,0.20
2022-12-11T22:35:27.323Z,0.10
2022-12-11T22:40:29.846Z,0.21
2022-12-11T22:45:31.748Z,0.25
2022-12-11T22:50:34.344Z,0.28
2022-12-11T22:55:38.646Z,0.28
2022-12-11T23:00:41.160Z,0.30
2022-12-11T23:05:43.446Z,0.29
2022-12-11T23:10:45.444Z,0.25
2022-12-11T23:15:47.042Z,0.24
2022-12-11T23:20:49.652Z,0.25
2022-12-11T23:25:51.437Z,0.24
2022-12-11T23:30:53.319Z,0.32
2022-12-11T23:35:54.980Z,0.31
2022-12-11T23:40:59.505Z,0.31
2022-12-11T23:46:01.312Z,0.22
2022-12-11T23:51:05.402Z,0.24
2022-12-11T23:56:15.687Z,0.17
